Time;durP1;ratioP1;P1;durP2;ratioP2;P2;SDS_P1;SDS_P2;PMS_P1;PMS_P2;Temp;Humidity;BMP_temperature;BMP_pressure;BME280_temperature;BME280_humidity;BME280_pressure;Samples;Min_cycle;Max_cycle;Signal;HPM_P1;HPM_P2
2021/12/07 00:01:36;;;;;;;33.45;19.92;;;;;;;-2.49;85.87;99880.97;4954624;28;20028;-55
2021/12/07 00:04:23;;;;;;;30.38;19.08;;;;;;;-2.38;85.52;99887.28;4956323;29;20058;-56
2021/12/07 00:07:09;;;;;;;27.95;16.73;;;;;;;-2.51;86.59;99895.25;4954173;29;20425;-56
2021/12/07 00:09:55;;;;;;;28.77;19.33;;;;;;;-2.46;86.40;99883.59;4958946;29;20046;-55
2021/12/07 00:12:44;;;;;;;30.70;18.45;;;;;;;-2.63;86.28;99876.28;4962114;29;20043;-56
2021/12/07 00:15:31;;;;;;;30.48;17.90;;;;;;;-2.43;86.54;99869.34;4961274;29;20031;-56
2021/12/07 00:18:17;;;;;;;31.60;18.38;;;;;;;-2.40;86.10;99867.75;4961794;29;20023;-58
2021/12/07 00:21:05;;;;;;;29.27;18.48;;;;;;;-2.27;85.51;99863.13;4961565;29;20228;-54
2021/12/07 00:23:51;;;;;;;32.05;18.30;;;;;;;-2.52;86.47;99860.56;4960257;29;20460;-55
2021/12/07 00:26:39;;;;;;;32.20;17.75;;;;;;;-2.36;85.53;99846.75;4959408;29;20043;-55
2021/12/07 00:29:29;;;;;;;28.45;16.73;;;;;;;-2.45;86.49;99844.78;4960428;29;20042;-55
2021/12/07 00:32:24;;;;;;;28.58;16.20;;;;;;;-2.63;86.70;99842.47;4961615;29;20058;-55
2021/12/07 00:35:33;;;;;;;31.13;17.55;;;;;;;-2.54;87.08;99827.56;4961385;29;20111;-55
2021/12/07 00:38:21;;;;;;;31.02;17.40;;;;;;;-2.41;86.04;99823.75;4954878;29;20066;-55
2021/12/07 00:41:08;;;;;;;28.15;16.48;;;;;;;-2.32;86.13;99835.91;4959612;28;20039;-55
2021/12/07 00:43:56;;;;;;;24.98;15.75;;;;;;;-2.19;86.27;99832.94;4961093;29;20062;-55
2021/12/07 00:46:43;;;;;;;26.00;15.63;;;;;;;-2.21;85.84;99829.47;4957071;29;20038;-55
2021/12/07 00:49:29;;;;;;;27.10;15.57;;;;;;;-2.30;86.40;99832.56;4950205;29;20067;-55
2021/12/07 00:52:15;;;;;;;24.67;15.15;;;;;;;-2.37;86.58;99825.56;4960193;29;20031;-55
2021/12/07 00:55:10;;;;;;;24.67;15.18;;;;;;;-2.60;87.34;99792.72;4955351;29;20034;-56
2021/12/07 00:57:58;;;;;;;25.60;15.13;;;;;;;-2.57;87.61;99812.25;4954806;29;20185;-55
2021/12/07 01:00:53;;;;;;;24.58;14.88;;;;;;;-2.99;87.18;99757.63;4961313;29;20035;-56
2021/12/07 01:03:40;;;;;;;25.88;15.25;;;;;;;-2.51;87.92;99811.59;4949086;29;20042;-55
2021/12/07 01:06:33;;;;;;;25.25;15.13;;;;;;;-2.46;86.96;99802.47;4955498;29;20070;-55
2021/12/07 01:24:41;;;;;;;22.10;13.13;;;;;;;-2.14;86.38;99784.88;4948774;29;20106;-55
2021/12/07 01:27:27;;;;;;;21.20;13.10;;;;;;;-2.35;87.03;99775.78;4959465;29;20245;-55
2021/12/07 01:30:37;;;;;;;21.38;13.02;;;;;;;-2.19;86.90;99786.44;4959712;29;20261;-55
2021/12/07 01:33:45;;;;;;;20.55;13.13;;;;;;;-2.30;86.63;99775.94;4960760;28;20078;-55
2021/12/07 02:00:47;;;;;;;18.85;12.60;;;;;;;-2.36;87.29;99743.63;4920419;29;20160;-55
2021/12/07 02:03:34;;;;;;;20.02;12.68;;;;;;;-2.51;87.61;99733.00;4921140;29;20103;-54
2021/12/07 02:06:20;;;;;;;20.33;12.88;;;;;;;-2.56;87.84;99724.41;4919356;29;20040;-55
2021/12/07 02:09:08;;;;;;;20.75;13.07;;;;;;;-2.41;87.71;99724.84;4919797;29;20032;-56
2021/12/07 02:11:59;;;;;;;20.25;12.40;;;;;;;-2.17;87.74;99721.38;4921198;29;20047;-56
2021/12/07 02:14:45;;;;;;;19.55;13.27;;;;;;;-2.07;86.77;99715.75;4959777;29;20098;-56
2021/12/07 02:17:33;;;;;;;20.92;13.05;;;;;;;-2.32;88.01;99716.72;4951539;29;20321;-55
2021/12/07 02:20:23;;;;;;;22.77;13.65;;;;;;;-2.29;87.96;99711.72;4958162;29;20316;-55
2021/12/07 02:23:09;;;;;;;21.08;12.40;;;;;;;-2.30;87.68;99710.84;4959615;29;20031;-56
2021/12/07 02:25:55;;;;;;;20.92;12.73;;;;;;;-2.27;87.98;99703.34;4957935;29;20035;-55
2021/12/07 02:28:41;;;;;;;16.63;11.88;;;;;;;-2.33;87.73;99703.16;4956972;29;20039;-56
2021/12/07 02:31:27;;;;;;;20.60;12.77;;;;;;;-2.30;88.09;99698.16;4952196;29;20213;-55
2021/12/07 02:34:14;;;;;;;18.88;12.05;;;;;;;-2.45;88.09;99690.97;4958998;29;20047;-56
2021/12/07 02:37:00;;;;;;;19.70;12.93;;;;;;;-2.22;87.11;99695.00;4960102;29;20040;-56
2021/12/07 02:39:46;;;;;;;21.00;13.88;;;;;;;-2.24;88.13;99687.34;4946607;29;20023;-56
2021/12/07 02:42:32;;;;;;;17.52;12.85;;;;;;;-2.17;87.19;99688.38;4959402;29;20039;-55
2021/12/07 02:45:21;;;;;;;17.75;12.23;;;;;;;-2.61;87.73;99617.75;4959427;29;20031;-55
2021/12/07 02:48:07;;;;;;;18.17;12.88;;;;;;;-2.16;88.08;99685.91;4951531;29;20027;-56
2021/12/07 02:50:53;;;;;;;25.77;14.43;;;;;;;-2.09;88.23;99689.50;4955024;29;20028;-56
2021/12/07 02:53:40;;;;;;;19.67;13.07;;;;;;;-2.24;89.35;99673.81;4951897;29;20118;-55
2021/12/07 02:56:27;;;;;;;20.42;13.63;;;;;;;-2.41;89.04;99668.22;4958966;29;20026;-56
2021/12/07 02:59:13;;;;;;;19.10;12.85;;;;;;;-2.40;89.41;99668.28;4943189;29;20054;-56
2021/12/07 03:02:04;;;;;;;19.55;14.27;;;;;;;-2.26;88.77;99677.16;4949991;29;20032;-56
2021/12/07 03:05:19;;;;;;;24.02;13.45;;;;;;;-2.14;88.22;99675.78;4960900;28;20035;-56
2021/12/07 03:26:23;;;;;;;17.30;11.68;;;;;;;-2.26;89.06;99644.19;4963324;29;20034;-56
2021/12/07 03:29:09;;;;;;;18.17;12.37;;;;;;;-2.03;89.14;99636.38;4961400;29;20031;-55
2021/12/07 03:31:55;;;;;;;19.70;12.10;;;;;;;-2.17;88.50;99632.59;4962826;29;20993;-56
2021/12/07 03:34:41;;;;;;;17.15;11.93;;;;;;;-2.21;88.93;99620.63;4953529;29;20060;-55
2021/12/07 03:37:27;;;;;;;19.98;13.18;;;;;;;-2.06;88.60;99605.84;4954503;29;20030;-57
2021/12/07 03:40:13;;;;;;;19.70;12.73;;;;;;;-2.24;87.96;99597.72;4961126;29;20329;-56
2021/12/07 03:43:00;;;;;;;16.52;11.65;;;;;;;-2.20;89.51;99597.84;4960718;29;20190;-55
2021/12/07 03:45:46;;;;;;;19.10;12.63;;;;;;;-2.29;89.97;99600.97;4962068;29;20436;-56
2021/12/07 03:48:32;;;;;;;20.48;12.93;;;;;;;-2.41;90.39;99595.53;4960904;29;20085;-56
2021/12/07 03:51:18;;;;;;;21.10;12.90;;;;;;;-2.47;89.96;99581.00;4962433;28;20023;-57
2021/12/07 03:54:06;;;;;;;21.55;14.30;;;;;;;-2.30;89.22;99591.66;4960545;29;20086;-56
2021/12/07 03:56:52;;;;;;;23.77;15.15;;;;;;;-2.19;89.08;99575.91;4959669;29;20091;-56
2021/12/07 03:59:38;;;;;;;21.73;14.82;;;;;;;-2.23;89.46;99574.94;4960902;29;20039;-56
2021/12/07 04:02:24;;;;;;;23.02;15.48;;;;;;;-2.32;89.32;99572.16;4962223;29;20171;-56
2021/12/07 04:05:15;;;;;;;23.08;16.42;;;;;;;-2.12;88.94;99577.78;4945592;29;20031;-56
2021/12/07 04:08:00;;;;;;;27.55;16.75;;;;;;;-2.35;89.11;99556.81;4959563;29;20085;-56
2021/12/07 04:10:47;;;;;;;25.25;15.10;;;;;;;-2.37;89.95;99561.00;4959986;29;20119;-55
2021/12/07 04:13:33;;;;;;;22.83;14.90;;;;;;;-2.30;89.32;99560.38;4959630;29;20090;-56
2021/12/07 04:16:20;;;;;;;19.60;12.35;;;;;;;-2.42;89.55;99555.81;4960469;28;20232;-57
2021/12/07 04:19:05;;;;;;;20.55;13.10;;;;;;;-2.30;89.28;99551.06;4960332;29;20043;-55
2021/12/07 04:21:51;;;;;;;22.33;13.88;;;;;;;-2.48;88.93;99536.22;4959796;29;20039;-56
2021/12/07 04:24:38;;;;;;;23.38;15.13;;;;;;;-2.38;89.42;99542.41;4944840;29;20032;-56
2021/12/07 04:27:23;;;;;;;22.35;14.80;;;;;;;-2.28;88.95;99538.44;4961163;29;20034;-56
2021/12/07 04:30:18;;;;;;;21.58;13.02;;;;;;;-2.43;88.88;99524.50;4961870;29;20023;-57
2021/12/07 04:33:06;;;;;;;19.77;13.95;;;;;;;-2.61;88.98;99473.28;4945040;29;20074;-56
2021/12/07 04:35:52;;;;;;;22.95;13.40;;;;;;;-2.41;89.75;99508.50;4946586;29;20036;-55
2021/12/07 04:38:39;;;;;;;23.08;15.27;;;;;;;-2.08;89.25;99519.56;4958497;29;20092;-55
2021/12/07 04:41:31;;;;;;;21.92;12.45;;;;;;;-2.12;88.19;99509.28;4960025;29;20043;-55
2021/12/07 04:44:17;;;;;;;21.20;14.40;;;;;;;-2.03;88.71;99514.59;4959547;29;20355;-56
2021/12/07 04:47:15;;;;;;;21.70;13.82;;;;;;;-2.04;88.62;99501.88;4960136;29;20039;-56
2021/12/07 04:59:16;;;;;;;17.98;12.30;;;;;;;-2.19;89.28;99479.50;4961584;29;20041;-56
2021/12/07 05:02:03;;;;;;;19.02;12.07;;;;;;;-2.19;89.01;99479.50;4960480;29;20049;-56
2021/12/07 05:04:49;;;;;;;21.55;14.57;;;;;;;-2.10;89.65;99467.91;4959792;29;20031;-56
2021/12/07 05:07:41;;;;;;;18.20;13.40;;;;;;;-2.14;89.80;99470.31;4949848;29;20091;-55
2021/12/07 05:13:59;;;;;;;20.50;13.77;;;;;;;-2.14;89.83;99458.53;4944400;29;20046;-55
2021/12/07 05:16:51;;;;;;;22.15;13.93;;;;;;;-2.23;90.34;99453.19;4955547;28;20051;-56
2021/12/07 05:37:58;;;;;;;17.52;12.55;;;;;;;-1.97;89.60;99451.31;4945749;29;20531;-56
2021/12/07 05:40:44;;;;;;;21.08;13.57;;;;;;;-1.91;89.61;99448.06;4956747;29;20044;-56
2021/12/07 05:43:31;;;;;;;20.80;13.13;;;;;;;-1.81;89.69;99441.53;4947017;29;20032;-55
2021/12/07 05:46:17;;;;;;;19.40;12.70;;;;;;;-1.88;88.88;99432.06;4959693;29;20034;-56
2021/12/07 05:49:03;;;;;;;18.35;12.48;;;;;;;-1.72;88.82;99439.25;4948249;29;20057;-56
2021/12/07 05:51:49;;;;;;;18.52;12.45;;;;;;;-1.65;89.09;99436.03;4957719;29;20082;-56
2021/12/07 05:54:35;;;;;;;16.15;12.18;;;;;;;-1.71;88.75;99435.91;4947301;29;20023;-55
2021/12/07 05:57:21;;;;;;;16.45;11.73;;;;;;;-1.93;90.16;99432.81;4958339;29;20023;-55
2021/12/07 06:00:11;;;;;;;17.80;11.93;;;;;;;-1.93;90.51;99416.75;4959245;29;20031;-55
2021/12/07 06:03:03;;;;;;;17.95;12.43;;;;;;;-1.88;90.40;99414.31;4956975;29;20213;-56
2021/12/07 06:05:49;;;;;;;17.65;12.75;;;;;;;-1.71;90.18;99424.84;4958454;29;20023;-56
2021/12/07 06:08:35;;;;;;;17.25;12.75;;;;;;;-1.75;90.69;99418.88;4958626;29;20019;-55
2021/12/07 06:11:23;;;;;;;16.10;12.07;;;;;;;-1.96;90.97;99424.28;4950449;29;20217;-55
2021/12/07 06:14:11;;;;;;;20.35;14.43;;;;;;;-1.75;91.11;99418.88;4944226;29;20139;-56
2021/12/07 06:16:57;;;;;;;20.63;13.23;;;;;;;-1.69;91.00;99415.63;4951732;29;20043;-55
2021/12/07 06:19:43;;;;;;;20.08;14.10;;;;;;;-1.47;90.53;99419.50;4959313;28;20355;-55
2021/12/07 06:22:29;;;;;;;16.83;12.35;;;;;;;-1.63;90.38;99418.28;4956289;29;20011;-56
2021/12/07 06:25:15;;;;;;;18.23;12.75;;;;;;;-1.62;90.47;99420.88;4957447;29;20034;-55
2021/12/07 06:28:01;;;;;;;21.48;13.15;;;;;;;-1.71;90.60;99414.72;4958163;29;20031;-56
2021/12/07 06:30:48;;;;;;;21.80;14.88;;;;;;;-1.59;91.27;99415.00;4959030;29;20031;-55
2021/12/07 06:33:34;;;;;;;17.60;13.70;;;;;;;-1.58;90.38;99409.97;4939436;29;20038;-55
2021/12/07 06:36:20;;;;;;;18.35;13.77;;;;;;;-1.66;90.44;99414.00;4959593;29;20034;-56
2021/12/07 06:39:08;;;;;;;18.40;13.48;;;;;;;-1.93;90.36;99363.44;4943533;29;20323;-56
2021/12/07 06:41:54;;;;;;;19.50;14.38;;;;;;;-1.56;90.48;99405.75;4962387;29;20123;-56
2021/12/07 06:44:40;;;;;;;20.27;13.93;;;;;;;-1.45;90.16;99421.25;4961497;29;20118;-56
2021/12/07 06:47:26;;;;;;;19.33;14.65;;;;;;;-1.59;90.85;99407.38;4959984;29;20066;-56
2021/12/07 06:50:12;;;;;;;20.35;14.02;;;;;;;-1.47;90.51;99410.22;4964012;29;20031;-55
2021/12/07 06:52:58;;;;;;;20.63;10.00;;;;;;;-1.66;90.08;99401.31;4961031;29;20102;-56
2021/12/07 06:55:44;;;;;;;20.45;14.52;;;;;;;-1.43;91.23;99395.88;4961859;29;20082;-56
2021/12/07 06:58:30;;;;;;;19.83;14.75;;;;;;;-1.61;91.73;99389.59;4963495;28;20035;-56
2021/12/07 07:01:17;;;;;;;19.42;14.77;;;;;;;-1.42;91.47;99390.84;4962862;29;20366;-56
2021/12/07 07:04:03;;;;;;;21.55;15.90;;;;;;;-1.35;91.99;99396.91;4947295;29;20232;-55
2021/12/07 07:06:50;;;;;;;18.52;13.77;;;;;;;-1.33;91.80;99395.25;4947111;29;20031;-54
2021/12/07 07:09:36;;;;;;;18.50;12.57;;;;;;;-1.35;91.32;99388.41;4960417;29;20449;-57
2021/12/07 07:12:22;;;;;;;18.45;12.90;;;;;;;-1.27;91.02;99376.75;4962996;28;20284;-55
2021/12/07 07:15:09;;;;;;;15.23;12.45;;;;;;;-1.22;91.68;99380.25;4961346;29;20024;-56
2021/12/07 07:17:55;;;;;;;18.80;12.68;;;;;;;-1.27;91.16;99375.09;4960464;29;20040;-57
2021/12/07 07:20:41;;;;;;;15.13;11.55;;;;;;;-1.16;90.22;99387.16;4961127;29;20027;-55
2021/12/07 07:23:29;;;;;;;13.02;9.93;;;;;;;-1.33;90.36;99391.88;4963054;29;20034;-55
2021/12/07 07:26:15;;;;;;;15.85;10.88;;;;;;;-1.26;90.10;99374.25;4961818;29;20367;-55
2021/12/07 07:29:01;;;;;;;13.38;9.35;;;;;;;-1.16;89.51;99379.53;4963077;29;20061;-56
2021/12/07 07:31:47;;;;;;;11.30;8.40;;;;;;;-1.24;89.41;99386.97;4956622;29;20212;-55
2021/12/07 07:34:33;;;;;;;12.15;8.77;;;;;;;-1.23;90.42;99378.53;4950753;29;20027;-56
2021/12/07 07:37:19;;;;;;;12.98;8.77;;;;;;;-1.24;90.00;99389.50;4962851;29;20015;-55
2021/12/07 07:40:07;;;;;;;12.05;9.35;;;;;;;-1.19;90.33;99370.16;4962159;29;20041;-56
2021/12/07 07:42:53;;;;;;;12.30;7.88;;;;;;;-1.40;90.85;99376.50;4960265;29;20106;-55
2021/12/07 07:45:39;;;;;;;13.55;9.60;;;;;;;-1.42;90.84;99357.81;4960387;29;20035;-55
2021/12/07 07:48:25;;;;;;;11.88;8.70;;;;;;;-1.25;91.40;99368.34;4961174;29;20037;-55
2021/12/07 07:51:11;;;;;;;11.93;9.25;;;;;;;-1.16;90.91;99354.13;4959808;28;20087;-55
2021/12/07 07:53:59;;;;;;;11.85;9.02;;;;;;;-0.98;90.56;99369.75;4960527;29;20054;-56
2021/12/07 07:56:45;;;;;;;8.93;6.80;;;;;;;-1.19;90.26;99354.91;4960041;29;20219;-56
2021/12/07 07:59:31;;;;;;;9.90;7.47;;;;;;;-1.15;90.67;99361.78;4960387;29;20035;-56
2021/12/07 08:02:17;;;;;;;10.32;7.65;;;;;;;-1.03;90.23;99356.06;4951459;29;20034;-56
2021/12/07 08:05:03;;;;;;;8.82;7.15;;;;;;;-1.15;89.06;99353.31;4955433;29;20102;-55
2021/12/07 08:07:51;;;;;;;9.25;6.95;;;;;;;-0.93;88.73;99346.94;4960130;29;20031;-57
2021/12/07 08:10:37;;;;;;;7.25;6.35;;;;;;;-0.95;88.27;99356.25;4961924;29;20255;-55
2021/12/07 08:13:23;;;;;;;9.18;6.90;;;;;;;-1.04;88.62;99334.06;4959510;29;20027;-55
2021/12/07 08:16:15;;;;;;;8.82;6.40;;;;;;;-0.88;89.06;99346.22;4953904;29;20043;-55
2021/12/07 08:19:01;;;;;;;9.55;6.65;;;;;;;-0.87;87.79;99345.41;4945231;29;20043;-55
2021/12/07 08:21:48;;;;;;;10.48;7.05;;;;;;;-0.68;88.08;99345.75;4959266;29;20031;-56
2021/12/07 08:24:34;;;;;;;9.35;6.00;;;;;;;-0.73;87.71;99339.69;4945552;29;20031;-56
2021/12/07 08:27:20;;;;;;;8.07;6.22;;;;;;;-0.62;88.79;99319.56;4961338;29;20306;-56
2021/12/07 08:30:09;;;;;;;8.57;6.40;;;;;;;-0.74;88.44;99310.88;4945478;28;20202;-55
2021/12/07 08:32:55;;;;;;;7.50;5.82;;;;;;;-0.82;88.29;99324.28;4962385;28;20031;-56
2021/12/07 08:35:41;;;;;;;7.57;6.03;;;;;;;-0.89;88.50;99334.31;4944883;29;20098;-55
2021/12/07 08:38:28;;;;;;;9.43;6.13;;;;;;;-0.84;89.60;99333.56;4943911;28;20035;-56
2021/12/07 08:41:15;;;;;;;7.55;5.57;;;;;;;-0.82;89.01;99327.69;4944033;29;20063;-57
2021/12/07 08:44:01;;;;;;;7.45;5.80;;;;;;;-0.80;89.25;99318.38;4944252;29;20045;-57
2021/12/07 08:46:47;;;;;;;7.88;6.13;;;;;;;-0.57;89.28;99321.34;4944922;29;20035;-56
2021/12/07 08:49:34;;;;;;;6.88;5.60;;;;;;;-0.52;88.67;99317.19;4960532;29;20035;-56
2021/12/07 08:52:20;;;;;;;5.60;4.80;;;;;;;-0.83;88.72;99320.03;4960890;29;20038;-56
2021/12/07 09:01:09;;;;;;;7.88;5.63;;;;;;;-0.59;89.04;99297.56;4961585;29;20031;-56
2021/12/07 09:03:57;;;;;;;6.43;4.95;;;;;;;-0.65;88.51;99281.38;4959080;29;20082;-56
2021/12/07 09:06:45;;;;;;;8.18;5.50;;;;;;;-0.88;88.76;99262.34;4959115;28;20038;-55
2021/12/07 09:09:33;;;;;;;5.43;4.60;;;;;;;-0.97;88.66;99213.91;4950560;29;20038;-56
2021/12/07 09:12:20;;;;;;;5.93;4.78;;;;;;;-0.48;87.94;99276.56;4959757;29;20082;-57
2021/12/07 09:15:06;;;;;;;6.82;5.32;;;;;;;-0.46;87.71;99285.06;4947554;29;20042;-55
2021/12/07 09:17:52;;;;;;;7.80;5.25;;;;;;;-0.40;87.00;99287.69;4950633;28;20027;-56
2021/12/07 09:20:38;;;;;;;5.75;4.15;;;;;;;-0.61;87.37;99289.06;4955520;29;20368;-56
2021/12/07 09:23:25;;;;;;;7.13;5.93;;;;;;;-0.53;88.54;99287.53;4958154;28;20027;-55
2021/12/07 09:26:11;;;;;;;6.30;4.32;;;;;;;-0.55;88.05;99294.25;4953899;28;20045;-55
2021/12/07 09:28:57;;;;;;;7.68;3.92;;;;;;;-0.61;87.82;99285.69;4950768;28;20027;-56
2021/12/07 09:31:43;;;;;;;6.28;4.63;;;;;;;-0.60;87.64;99269.56;4957815;28;20035;-55
2021/12/07 09:34:30;;;;;;;5.60;4.90;;;;;;;-0.56;87.98;99267.09;4958873;29;20031;-55
2021/12/07 09:37:16;;;;;;;6.30;4.90;;;;;;;-0.63;88.91;99267.84;4959051;29;20031;-56
2021/12/07 09:40:06;;;;;;;7.28;5.07;;;;;;;-1.02;88.45;99204.47;4959033;29;20039;-56
2021/12/07 09:42:52;;;;;;;5.10;4.22;;;;;;;-0.67;88.14;99262.69;4953194;29;20069;-55
2021/12/07 09:45:41;;;;;;;6.35;5.10;;;;;;;-0.56;88.19;99274.72;4958739;29;20038;-55
2021/12/07 09:48:27;;;;;;;5.60;4.68;;;;;;;-0.57;88.44;99257.78;4959946;29;20031;-55
2021/12/07 09:51:16;;;;;;;6.78;5.05;;;;;;;-0.57;87.91;99255.25;4960940;29;20104;-56
2021/12/07 09:54:04;;;;;;;5.50;4.65;;;;;;;-0.52;88.74;99258.69;4956486;29;20137;-56
2021/12/07 09:56:50;;;;;;;5.38;4.55;;;;;;;-0.36;87.62;99262.38;4945781;28;20039;-56
2021/12/07 09:59:37;;;;;;;5.72;4.93;;;;;;;-0.66;88.77;99260.16;4950535;28;20529;-56
2021/12/07 10:02:23;;;;;;;6.30;4.80;;;;;;;-0.83;89.54;99254.78;4960606;28;20031;-56
2021/12/07 10:05:09;;;;;;;7.32;5.22;;;;;;;-0.58;89.78;99260.31;4960051;29;20035;-56
2021/12/07 10:07:55;;;;;;;7.38;5.10;;;;;;;-0.60;89.24;99254.31;4958337;28;20515;-56
2021/12/07 10:10:48;;;;;;;5.93;4.90;;;;;;;-0.35;89.22;99255.56;4956696;29;20205;-56
2021/12/07 10:13:35;;;;;;;9.52;5.53;;;;;;;-0.39;88.57;99258.91;4946737;29;20035;-56
2021/12/07 10:16:23;;;;;;;6.25;5.40;;;;;;;-0.51;89.46;99254.47;4960365;29;20075;-56
2021/12/07 10:19:08;;;;;;;6.38;4.38;;;;;;;-0.73;88.80;99265.97;4956254;29;20020;-57
2021/12/07 10:22:19;;;;;;;6.90;4.85;;;;;;;-0.72;89.36;99193.97;4948614;29;20325;-56
2021/12/07 10:25:05;;;;;;;6.03;4.78;;;;;;;-0.65;89.31;99243.22;4957064;29;20267;-56
2021/12/07 10:27:52;;;;;;;5.47;4.88;;;;;;;-0.73;88.96;99236.34;4955566;28;20038;-56
2021/12/07 10:30:38;;;;;;;5.68;4.97;;;;;;;-0.60;90.15;99250.09;4948451;28;20127;-56
2021/12/07 10:33:33;;;;;;;6.53;4.72;;;;;;;-0.52;89.03;99243.44;4957717;28;20043;-55
2021/12/07 10:36:21;;;;;;;8.52;5.25;;;;;;;-0.40;89.77;99247.00;4957735;29;20070;-56
2021/12/07 10:39:17;;;;;;;6.45;5.07;;;;;;;-0.69;89.90;99181.28;4958131;29;20073;-55
2021/12/07 10:42:10;;;;;;;6.80;5.28;;;;;;;-0.47;88.93;99220.63;4959467;29;20051;-56
2021/12/07 10:45:04;;;;;;;6.85;4.90;;;;;;;-0.74;88.36;99195.59;4958325;29;20043;-55
2021/12/07 10:47:50;;;;;;;5.35;4.03;;;;;;;-0.77;89.46;99242.19;4957269;28;20039;-56
2021/12/07 10:50:38;;;;;;;6.97;4.88;;;;;;;-0.83;89.88;99181.06;4953771;29;20040;-56
2021/12/07 10:53:34;;;;;;;7.28;5.40;;;;;;;-0.67;89.60;99232.16;4952853;29;20032;-55
2021/12/07 10:56:50;;;;;;;7.22;5.50;;;;;;;-0.60;89.21;99208.53;4942839;29;20034;-56
2021/12/07 10:59:37;;;;;;;7.93;5.30;;;;;;;-0.37;89.43;99239.41;4953007;28;20249;-56
2021/12/07 11:02:27;;;;;;;7.22;5.32;;;;;;;-0.68;88.88;99187.22;4958086;29;20320;-56
2021/12/07 11:05:44;;;;;;;5.78;5.15;;;;;;;-0.30;88.88;99232.75;4953218;29;20027;-55
2021/12/07 11:08:33;;;;;;;6.72;5.10;;;;;;;-0.27;89.16;99222.59;4953776;29;20039;-56
2021/12/07 11:11:27;;;;;;;7.93;5.03;;;;;;;-0.34;89.33;99224.22;4958014;29;20095;-56
2021/12/07 11:14:14;;;;;;;7.15;5.03;;;;;;;-0.30;88.97;99223.44;4947288;29;20020;-56
2021/12/07 11:17:00;;;;;;;8.00;5.63;;;;;;;-0.29;89.59;99230.22;4943684;29;20038;-55
2021/12/07 11:19:46;;;;;;;9.25;5.20;;;;;;;-0.12;89.41;99247.44;4956705;29;20023;-56
2021/12/07 11:22:35;;;;;;;6.20;4.60;;;;;;;-0.80;88.89;99175.19;4958241;29;20325;-55
2021/12/07 11:32:00;;;;;;;6.57;5.22;;;;;;;-0.26;89.94;99225.16;4958662;29;20134;-56
2021/12/07 11:34:46;;;;;;;7.15;4.93;;;;;;;-0.38;89.63;99208.03;4961320;29;20034;-55
2021/12/07 11:37:38;;;;;;;8.38;6.40;;;;;;;-0.16;89.79;99220.22;4962319;29;20038;-57
2021/12/07 11:40:27;;;;;;;7.33;5.70;;;;;;;-0.30;89.11;99195.47;4961746;29;20333;-55
2021/12/07 11:43:18;;;;;;;6.85;5.45;;;;;;;-0.11;89.04;99223.72;4963597;28;20452;-56
2021/12/07 11:46:18;;;;;;;5.53;4.75;;;;;;;-0.43;89.20;99199.50;4959366;29;20073;-56
2021/12/07 11:49:09;;;;;;;5.57;4.97;;;;;;;-0.16;89.64;99222.78;4953829;29;20195;-56
2021/12/07 11:51:59;;;;;;;8.07;5.57;;;;;;;-0.46;89.33;99173.16;4961117;29;20035;-55
2021/12/07 11:54:45;;;;;;;7.95;5.30;;;;;;;-0.23;90.10;99221.81;4959862;29;20209;-55
2021/12/07 11:57:31;;;;;;;6.78;4.85;;;;;;;-0.33;89.79;99225.06;4960702;29;20070;-55
2021/12/07 12:00:26;;;;;;;7.55;5.55;;;;;;;-0.26;90.24;99242.97;4962046;29;20054;-57
2021/12/07 12:03:15;;;;;;;6.55;5.72;;;;;;;-0.21;89.77;99236.28;4962121;29;20058;-55
2021/12/07 12:06:02;;;;;;;6.05;5.25;;;;;;;-0.16;90.60;99220.22;4959540;29;20086;-57
2021/12/07 12:08:49;;;;;;;9.07;5.35;;;;;;;-0.02;89.73;99219.56;4950839;29;20035;-56
2021/12/07 12:11:58;;;;;;;8.75;6.18;;;;;;;0.05;89.02;99212.88;4962223;29;20389;-56
2021/12/07 12:14:50;;;;;;;8.52;5.90;;;;;;;0.03;89.52;99227.28;4944400;29;20089;-57
2021/12/07 12:18:13;;;;;;;7.10;5.50;;;;;;;-0.54;89.46;99171.38;4945594;29;20023;-57
2021/12/07 12:21:17;;;;;;;7.82;6.10;;;;;;;-0.14;89.88;99233.81;4955119;28;20047;-56
2021/12/07 12:24:04;;;;;;;7.43;5.65;;;;;;;0.04;89.37;99228.97;4954186;29;20062;-56
2021/12/07 12:27:12;;;;;;;7.05;5.45;;;;;;;-0.21;89.32;99195.56;4960317;29;20039;-55
2021/12/07 12:30:03;;;;;;;8.05;5.70;;;;;;;-0.32;89.69;99194.56;4958589;29;20093;-57
2021/12/07 12:32:55;;;;;;;7.70;5.75;;;;;;;0.02;89.34;99225.56;4960731;29;20261;-56
2021/12/07 12:35:47;;;;;;;7.63;5.97;;;;;;;-0.10;89.14;99199.94;4944255;29;20035;-55
2021/12/07 12:38:33;;;;;;;9.02;6.20;;;;;;;0.14;89.08;99243.56;4950711;29;20035;-57
2021/12/07 12:41:20;;;;;;;9.43;6.00;;;;;;;0.13;89.41;99233.38;4962593;28;20051;-55
2021/12/07 12:44:14;;;;;;;7.63;6.22;;;;;;;0.07;89.62;99234.16;4960936;29;20038;-56
2021/12/07 12:47:00;;;;;;;8.20;5.95;;;;;;;0.19;89.44;99233.44;4957429;28;20046;-57
2021/12/07 12:49:46;;;;;;;8.73;6.22;;;;;;;0.15;89.34;99255.44;4958549;29;20050;-57
2021/12/07 12:52:39;;;;;;;9.55;6.15;;;;;;;-0.15;89.31;99197.34;4945919;29;20285;-56
2021/12/07 12:55:26;;;;;;;8.73;6.60;;;;;;;0.36;89.47;99243.84;4957345;29;20046;-56
2021/12/07 12:58:33;;;;;;;8.30;6.78;;;;;;;0.34;89.70;99248.03;4947403;29;20023;-56
2021/12/07 13:01:19;;;;;;;13.13;7.53;;;;;;;0.37;89.61;99243.00;4960651;29;20083;-57
2021/12/07 13:04:27;;;;;;;7.95;6.75;;;;;;;0.08;89.15;99184.91;4960150;28;20039;-56
2021/12/07 13:07:26;;;;;;;10.43;7.40;;;;;;;0.37;89.05;99252.31;4958714;29;20035;-57
2021/12/07 13:10:12;;;;;;;11.35;7.10;;;;;;;0.26;89.89;99234.38;4958685;29;20039;-56
2021/12/07 13:12:58;;;;;;;10.52;6.80;;;;;;;0.38;89.59;99233.66;4959298;29;20031;-56
2021/12/07 13:15:46;;;;;;;8.65;6.68;;;;;;;0.23;89.78;99235.19;4947714;29;20039;-57
2021/12/07 13:18:32;;;;;;;9.20;7.43;;;;;;;0.21;90.09;99223.28;4958600;29;20325;-57
2021/12/07 13:21:31;;;;;;;9.68;7.78;;;;;;;0.09;90.81;99227.38;4944333;29;20103;-55
2021/12/07 13:24:36;;;;;;;9.65;7.10;;;;;;;0.13;91.45;99224.03;4960140;29;20093;-57
2021/12/07 13:27:23;;;;;;;10.55;7.55;;;;;;;0.05;90.94;99217.97;4960406;29;20035;-55
2021/12/07 13:30:09;;;;;;;11.18;7.85;;;;;;;0.19;90.79;99215.63;4943825;29;20028;-56
2021/12/07 13:33:15;;;;;;;9.70;7.90;;;;;;;0.16;90.92;99238.50;4943156;29;20035;-56
2021/12/07 13:36:31;;;;;;;8.90;7.50;;;;;;;0.26;91.55;99227.59;4958174;28;20142;-56
2021/12/07 13:39:18;;;;;;;9.90;7.80;;;;;;;0.33;90.68;99231.91;4958007;28;20094;-57
2021/12/07 13:42:16;;;;;;;9.38;7.13;;;;;;;0.31;90.40;99232.72;4957754;29;20055;-56
2021/12/07 13:45:07;;;;;;;11.35;8.55;;;;;;;-0.05;90.95;99168.63;4954326;29;20059;-57
2021/12/07 13:47:53;;;;;;;8.07;7.18;;;;;;;0.41;90.47;99233.69;4955237;29;20150;-56
2021/12/07 13:50:39;;;;;;;9.40;7.07;;;;;;;0.49;90.47;99227.00;4960039;29;20109;-56
2021/12/07 13:53:26;;;;;;;12.93;7.60;;;;;;;0.43;90.05;99232.91;4959500;29;20023;-56
2021/12/07 13:56:13;;;;;;;8.30;6.75;;;;;;;0.61;89.89;99232.22;4958171;29;20055;-57
2021/12/07 13:59:03;;;;;;;11.70;7.00;;;;;;;0.68;89.53;99233.16;4956962;29;20258;-56
2021/12/07 14:01:53;;;;;;;7.75;6.95;;;;;;;0.27;89.50;99183.47;4958507;28;20042;-56
2021/12/07 14:04:39;;;;;;;9.70;7.10;;;;;;;0.64;90.07;99242.47;4952847;29;20078;-55
2021/12/07 14:07:25;;;;;;;12.38;8.57;;;;;;;0.69;89.41;99245.06;4959778;28;20039;-56
2021/12/07 14:10:32;;;;;;;8.93;7.00;;;;;;;0.44;89.73;99211.69;4944348;29;20039;-56
2021/12/07 14:13:19;;;;;;;10.15;7.63;;;;;;;0.75;89.72;99265.53;4943562;29;20035;-56
2021/12/07 14:16:06;;;;;;;9.70;8.13;;;;;;;0.76;89.76;99266.41;4959643;29;20110;-56
2021/12/07 14:18:52;;;;;;;11.52;8.10;;;;;;;0.56;90.28;99267.00;4950249;29;20028;-56
2021/12/07 14:21:38;;;;;;;14.82;8.80;;;;;;;0.63;90.25;99266.25;4943728;29;20340;-55
2021/12/07 14:24:24;;;;;;;12.20;8.77;;;;;;;0.73;90.76;99263.78;4945005;29;20182;-56
2021/12/07 14:27:10;;;;;;;11.35;8.75;;;;;;;0.75;90.31;99264.69;4942927;29;20063;-57
2021/12/07 14:29:56;;;;;;;11.70;8.85;;;;;;;0.87;90.29;99264.81;4957934;29;20039;-57
2021/12/07 14:32:45;;;;;;;10.45;8.30;;;;;;;0.75;90.18;99274.88;4942938;29;20031;-57
2021/12/07 14:35:31;;;;;;;11.45;8.43;;;;;;;0.89;90.04;99277.59;4947520;29;20027;-56
2021/12/07 14:38:17;;;;;;;13.50;9.30;;;;;;;0.79;90.26;99281.72;4959938;29;20887;-56
2021/12/07 14:41:12;;;;;;;11.82;9.55;;;;;;;0.52;90.65;99234.69;4957900;29;20123;-55
2021/12/07 14:43:58;;;;;;;13.05;9.38;;;;;;;0.92;90.41;99277.63;4960515;28;20299;-55
2021/12/07 14:46:46;;;;;;;13.50;9.90;;;;;;;0.58;90.03;99223.72;4953252;29;20311;-56
2021/12/07 14:49:40;;;;;;;14.68;9.70;;;;;;;0.91;90.41;99276.72;4955693;29;20031;-56